Time;durP1;ratioP1;P1;durP2;ratioP2;P2;SDS_P1;SDS_P2;PMS_P1;PMS_P2;Temp;Humidity;BMP_temperature;BMP_pressure;BME280_temperature;BME280_humidity;BME280_pressure;Samples;Min_cycle;Max_cycle;Signal;HPM_P1;HPM_P2
2022/06/26 00:01:14;;;;;;;0.30;0.30;;;19.70;99.90;;;;;;5075919;28;20048;-77
2022/06/26 00:03:39;;;;;;;0.20;0.20;;;19.70;99.90;;;;;;5074520;28;20386;-77
2022/06/26 00:06:05;;;;;;;0.33;0.33;;;19.70;99.90;;;;;;5075296;28;20053;-77
2022/06/26 00:08:31;;;;;;;0.30;0.30;;;19.60;99.90;;;;;;5057560;28;20044;-76
2022/06/26 00:10:56;;;;;;;0.20;0.20;;;19.50;99.90;;;;;;5075278;28;20087;-77
2022/06/26 00:13:22;;;;;;;0.43;0.43;;;19.50;99.90;;;;;;5074879;28;20131;-77
2022/06/26 00:15:48;;;;;;;0.30;0.30;;;19.50;99.90;;;;;;5075074;28;20087;-77
2022/06/26 00:18:14;;;;;;;0.20;0.20;;;19.50;99.90;;;;;;5074985;28;20406;-76
2022/06/26 00:20:40;;;;;;;0.30;0.30;;;19.40;99.90;;;;;;5075006;28;20135;-76
2022/06/26 00:23:06;;;;;;;0.43;0.43;;;19.40;99.90;;;;;;5074880;28;20047;-76
2022/06/26 00:25:32;;;;;;;0.20;0.20;;;19.40;99.90;;;;;;5074858;28;20048;-77
2022/06/26 00:27:57;;;;;;;0.40;0.40;;;19.30;99.90;;;;;;5074744;28;20075;-76
2022/06/26 00:30:23;;;;;;;0.20;0.20;;;19.30;99.90;;;;;;5074755;28;20052;-76
2022/06/26 00:32:49;;;;;;;0.77;0.77;;;19.30;99.90;;;;;;5074708;28;20488;-76
2022/06/26 00:35:14;;;;;;;0.30;0.30;;;19.20;99.90;;;;;;5074683;28;20056;-76
2022/06/26 00:37:40;;;;;;;0.30;0.30;;;19.10;99.90;;;;;;5074600;28;20128;-76
2022/06/26 00:40:07;;;;;;;0.20;0.20;;;19.20;99.90;;;;;;5074706;28;20044;-76
2022/06/26 00:42:32;;;;;;;;;;;19.10;99.90;;;;;;5074595;28;20053;-77
2022/06/26 00:44:58;;;;;;;0.30;0.30;;;19.10;99.90;;;;;;5074516;28;19937;-77
2022/06/26 00:47:24;;;;;;;0.30;0.30;;;19.10;99.90;;;;;;5074465;28;20041;-76
2022/06/26 00:49:49;;;;;;;0.32;0.30;;;19.10;99.90;;;;;;5074426;28;20051;-76
2022/06/26 00:52:20;;;;;;;0.40;0.40;;;19.10;99.90;;;;;;5074613;28;20477;-76
2022/06/26 00:54:48;;;;;;;0.30;0.30;;;19.00;99.90;;;;;;5074069;28;20044;-76
2022/06/26 00:57:13;;;;;;;0.30;0.30;;;19.00;99.90;;;;;;5074185;28;20044;-76
2022/06/26 00:59:39;;;;;;;0.20;0.20;;;19.00;99.90;;;;;;5074633;28;20385;-76
2022/06/26 01:02:05;;;;;;;0.30;0.30;;;18.90;99.90;;;;;;5074613;28;20048;-76
2022/06/26 01:04:32;;;;;;;0.33;0.33;;;18.90;99.90;;;;;;5074156;28;20051;-76
2022/06/26 01:06:57;;;;;;;0.30;0.30;;;18.90;99.90;;;;;;5074413;28;20056;-76
2022/06/26 01:09:23;;;;;;;0.20;0.20;;;18.90;99.90;;;;;;5074100;28;20051;-77
2022/06/26 01:11:50;;;;;;;0.30;0.30;;;18.90;99.90;;;;;;5073685;28;20098;-76
2022/06/26 01:14:16;;;;;;;0.30;0.30;;;18.90;99.90;;;;;;5073983;28;20049;-76
2022/06/26 01:16:43;;;;;;;0.30;0.30;;;18.80;99.90;;;;;;5073978;28;20075;-77
2022/06/26 01:19:09;;;;;;;0.30;0.30;;;18.80;99.90;;;;;;5073822;28;20090;-77
2022/06/26 01:21:36;;;;;;;0.20;0.20;;;18.80;99.90;;;;;;5073920;28;20056;-77
2022/06/26 01:24:02;;;;;;;;;;;18.80;99.90;;;;;;5074339;28;20400;-76
2022/06/26 01:26:28;;;;;;;0.47;0.30;;;18.80;99.90;;;;;;5073653;28;20368;-76
2022/06/26 01:28:53;;;;;;;0.30;0.30;;;18.80;99.90;;;;;;5073871;28;20039;-76
2022/06/26 01:31:19;;;;;;;0.30;0.30;;;18.80;99.90;;;;;;5073860;28;20626;-77
2022/06/26 01:33:49;;;;;;;0.30;0.30;;;18.90;99.90;;;;;;5073777;28;20094;-77
2022/06/26 01:36:16;;;;;;;0.30;0.30;;;18.90;99.90;;;;;;5073726;28;20134;-77
2022/06/26 01:38:42;;;;;;;0.30;0.30;;;18.90;99.90;;;;;;5055847;28;20044;-77
2022/06/26 01:41:08;;;;;;;0.60;0.60;;;19.00;99.90;;;;;;5073772;28;20050;-78
2022/06/26 01:43:36;;;;;;;0.30;0.30;;;18.90;99.90;;;;;;5073719;28;20040;-78
2022/06/26 01:46:03;;;;;;;0.82;0.63;;;18.90;99.90;;;;;;5073779;28;20074;-77
2022/06/26 01:48:31;;;;;;;1.10;1.00;;;19.00;99.90;;;;;;5074033;28;20094;-77
2022/06/26 01:50:58;;;;;;;0.30;0.30;;;19.10;99.90;;;;;;5073445;28;20102;-78
2022/06/26 01:53:24;;;;;;;0.30;0.30;;;19.00;99.90;;;;;;5073580;28;20047;-77
2022/06/26 01:55:50;;;;;;;0.38;0.38;;;19.20;99.90;;;;;;5073500;28;20045;-77
2022/06/26 01:58:16;;;;;;;0.63;0.63;;;19.20;99.90;;;;;;5073469;28;20375;-77
2022/06/26 02:00:44;;;;;;;0.30;0.30;;;19.20;99.90;;;;;;5073562;28;20094;-76
2022/06/26 02:03:10;;;;;;;0.63;0.55;;;19.10;99.90;;;;;;5073461;28;20053;-77
2022/06/26 02:05:36;;;;;;;0.47;0.47;;;19.30;99.90;;;;;;5073264;28;20056;-77
2022/06/26 02:08:03;;;;;;;0.30;0.30;;;19.30;99.90;;;;;;5077206;28;20511;-77
2022/06/26 02:16:00;;;;;;;0.50;0.50;;;19.20;99.90;;;;;;5077404;28;20478;-77
2022/06/26 02:18:26;;;;;;;0.20;0.20;;;19.10;99.90;;;;;;5077401;28;20045;-77
2022/06/26 02:20:52;;;;;;;0.30;0.30;;;19.10;99.90;;;;;;5077324;28;20091;-76
2022/06/26 02:23:18;;;;;;;0.40;0.40;;;19.10;99.90;;;;;;5077318;28;20040;-76
2022/06/26 02:25:44;;;;;;;0.30;0.30;;;19.10;99.90;;;;;;5077262;28;20059;-76
2022/06/26 02:28:10;;;;;;;0.20;0.20;;;19.00;99.90;;;;;;5076958;28;20052;-76
2022/06/26 02:30:36;;;;;;;0.30;0.30;;;19.00;99.90;;;;;;5077176;28;20048;-76
2022/06/26 02:33:03;;;;;;;0.20;0.20;;;19.00;99.90;;;;;;5076914;28;20106;-76
2022/06/26 02:35:29;;;;;;;0.30;0.30;;;18.90;99.90;;;;;;5077092;28;20139;-76
2022/06/26 02:37:55;;;;;;;0.30;0.30;;;18.90;99.90;;;;;;5077211;28;20048;-76
2022/06/26 02:40:23;;;;;;;0.30;0.30;;;18.90;99.90;;;;;;5077016;28;20090;-76
2022/06/26 02:42:49;;;;;;;0.45;0.45;;;19.00;99.90;;;;;;5077002;28;20449;-77
2022/06/26 02:45:14;;;;;;;0.30;0.30;;;19.00;99.90;;;;;;5076912;28;20080;-76
2022/06/26 02:47:41;;;;;;;0.20;0.20;;;18.80;99.90;;;;;;5076803;28;20056;-77
2022/06/26 02:50:07;;;;;;;0.30;0.30;;;18.90;99.90;;;;;;5076721;28;20040;-76
2022/06/26 02:52:34;;;;;;;0.68;0.68;;;18.90;99.90;;;;;;5076630;28;20044;-76
2022/06/26 02:55:00;;;;;;;0.20;0.20;;;18.90;99.90;;;;;;5076705;28;20059;-76
2022/06/26 02:57:26;;;;;;;;;;;18.80;99.90;;;;;;5076770;28;20555;-76
2022/06/26 02:59:52;;;;;;;0.55;0.45;;;18.80;99.90;;;;;;5076529;28;20015;-76
2022/06/26 03:02:17;;;;;;;0.20;0.20;;;18.80;99.90;;;;;;5076443;28;20047;-76
2022/06/26 03:04:43;;;;;;;0.30;0.30;;;18.80;99.90;;;;;;5076459;28;20492;-76
2022/06/26 03:07:09;;;;;;;0.30;0.30;;;18.80;99.90;;;;;;5076797;28;20053;-76
2022/06/26 03:09:34;;;;;;;0.57;0.57;;;18.70;99.90;;;;;;5076428;28;20052;-76
2022/06/26 03:12:00;;;;;;;0.30;0.30;;;18.70;99.90;;;;;;5076440;28;20044;-76
2022/06/26 03:14:26;;;;;;;0.40;0.40;;;18.70;99.90;;;;;;5076329;28;20500;-76
2022/06/26 03:16:52;;;;;;;0.43;0.43;;;18.70;99.90;;;;;;5075947;28;20055;-76
2022/06/26 03:19:18;;;;;;;0.40;0.40;;;18.60;99.90;;;;;;5076156;28;20528;-75
2022/06/26 03:21:43;;;;;;;0.30;0.30;;;18.50;99.90;;;;;;5076348;28;20362;-76
2022/06/26 03:24:09;;;;;;;0.23;0.23;;;18.50;99.90;;;;;;5076389;28;20044;-76
2022/06/26 03:26:36;;;;;;;0.20;0.20;;;18.50;99.90;;;;;;5076231;28;20044;-76
2022/06/26 03:29:04;;;;;;;0.50;0.50;;;18.50;99.90;;;;;;5076136;28;20052;-76
2022/06/26 03:31:30;;;;;;;0.40;0.40;;;18.40;99.90;;;;;;5075982;28;20052;-76
2022/06/26 03:33:56;;;;;;;0.30;0.30;;;18.50;99.90;;;;;;5058485;28;20127;-76
2022/06/26 03:36:24;;;;;;;0.50;0.50;;;18.40;99.90;;;;;;5075803;28;20135;-76
2022/06/26 03:38:50;;;;;;;0.30;0.30;;;18.40;99.90;;;;;;5075923;28;20128;-76
2022/06/26 03:41:16;;;;;;;0.20;0.20;;;18.40;99.90;;;;;;5075858;28;20048;-76
2022/06/26 03:43:41;;;;;;;2.47;1.30;;;18.40;99.90;;;;;;5075807;28;20051;-76
2022/06/26 03:46:07;;;;;;;0.30;0.30;;;18.40;99.90;;;;;;5075761;28;20139;-76
2022/06/26 03:48:34;;;;;;;0.20;0.20;;;18.40;99.90;;;;;;5075756;28;20439;-75
2022/06/26 03:51:01;;;;;;;0.20;0.20;;;18.40;99.90;;;;;;5075652;28;20064;-76
2022/06/26 03:53:28;;;;;;;0.30;0.30;;;18.40;99.90;;;;;;5075587;28;20549;-76
2022/06/26 03:55:54;;;;;;;0.20;0.20;;;18.30;99.90;;;;;;5076013;28;20086;-76
2022/06/26 03:58:20;;;;;;;0.30;0.30;;;18.20;99.90;;;;;;5075497;28;20089;-76
2022/06/26 04:00:46;;;;;;;0.20;0.20;;;18.30;99.90;;;;;;5075574;28;20127;-76
2022/06/26 04:03:11;;;;;;;0.30;0.30;;;18.30;99.90;;;;;;5075509;28;20040;-76
2022/06/26 04:05:37;;;;;;;0.20;0.20;;;18.20;99.90;;;;;;5075264;28;20370;-76
2022/06/26 04:08:03;;;;;;;0.50;0.50;;;18.20;99.90;;;;;;5076161;28;20036;-76
2022/06/26 04:10:29;;;;;;;0.20;0.20;;;18.20;99.90;;;;;;5075249;28;20483;-76
2022/06/26 04:13:02;;;;;;;0.30;0.30;;;18.10;99.90;;;;;;5075136;28;20048;-76
2022/06/26 04:15:29;;;;;;;0.30;0.30;;;18.10;99.90;;;;;;5075061;28;20527;-76
2022/06/26 04:17:55;;;;;;;0.30;0.30;;;18.10;99.90;;;;;;5074879;28;20464;-76
2022/06/26 04:20:21;;;;;;;0.20;0.20;;;18.10;99.90;;;;;;5075099;28;20511;-76
2022/06/26 04:22:57;;;;;;;0.30;0.30;;;18.10;99.90;;;;;;5074992;28;20084;-76
2022/06/26 04:25:23;;;;;;;0.30;0.30;;;18.10;99.90;;;;;;5074903;28;20044;-76
2022/06/26 04:27:49;;;;;;;0.30;0.30;;;18.10;99.90;;;;;;5075083;28;20044;-76
2022/06/26 04:30:15;;;;;;;0.30;0.30;;;18.10;99.90;;;;;;5074146;28;20040;-75
2022/06/26 04:32:40;;;;;;;0.30;0.30;;;18.10;99.90;;;;;;5075247;28;20148;-77
2022/06/26 04:35:08;;;;;;;0.20;0.20;;;18.10;99.90;;;;;;5075346;28;20559;-76
2022/06/26 04:37:34;;;;;;;0.20;0.20;;;18.10;99.90;;;;;;5075130;28;20044;-75
2022/06/26 04:40:00;;;;;;;0.30;0.30;;;18.10;99.90;;;;;;5074617;28;20103;-75
2022/06/26 04:42:25;;;;;;;0.33;0.33;;;18.10;99.90;;;;;;5074600;28;20080;-75
2022/06/26 04:44:51;;;;;;;0.30;0.30;;;18.10;99.90;;;;;;5074654;28;20154;-75
2022/06/26 04:47:16;;;;;;;0.30;0.30;;;18.10;99.90;;;;;;5074604;28;20049;-74
2022/06/26 04:49:42;;;;;;;0.20;0.20;;;18.10;99.90;;;;;;5074500;28;20044;-75
2022/06/26 04:52:07;;;;;;;0.50;0.50;;;18.00;99.90;;;;;;5074464;28;20040;-76
2022/06/26 04:54:33;;;;;;;1.00;0.73;;;18.00;99.90;;;;;;5074485;28;20137;-75
2022/06/26 04:56:59;;;;;;;0.20;0.20;;;18.00;99.90;;;;;;5040075;28;20049;-75
2022/06/26 04:59:24;;;;;;;0.30;0.30;;;17.90;99.90;;;;;;5074105;28;20041;-76
2022/06/26 05:01:50;;;;;;;0.20;0.20;;;18.00;99.90;;;;;;5074181;28;20048;-77
2022/06/26 05:04:15;;;;;;;0.30;0.30;;;17.90;99.90;;;;;;5074633;28;20044;-75
2022/06/26 05:06:41;;;;;;;0.20;0.20;;;18.00;99.90;;;;;;5074190;28;20524;-75
2022/06/26 05:09:06;;;;;;;0.33;0.33;;;17.90;99.90;;;;;;5074000;28;20044;-74
2022/06/26 05:11:32;;;;;;;0.30;0.30;;;18.00;99.90;;;;;;5074442;28;20052;-74
2022/06/26 05:13:58;;;;;;;0.53;0.50;;;18.00;99.90;;;;;;5056502;28;20102;-77
2022/06/26 05:16:23;;;;;;;0.20;0.20;;;18.10;99.90;;;;;;5074066;28;20535;-75
2022/06/26 05:18:49;;;;;;;0.30;0.30;;;18.10;99.90;;;;;;5074017;28;20051;-74
2022/06/26 05:21:14;;;;;;;0.30;0.30;;;18.30;99.90;;;;;;5074000;28;20127;-75
2022/06/26 05:23:40;;;;;;;0.20;0.20;;;18.30;99.90;;;;;;5074146;28;20090;-76
2022/06/26 05:26:06;;;;;;;0.30;0.30;;;18.50;99.90;;;;;;5073874;28;20472;-76
2022/06/26 05:28:32;;;;;;;0.30;0.30;;;18.70;99.90;;;;;;5073811;28;20055;-76
2022/06/26 05:30:58;;;;;;;0.20;0.20;;;19.10;99.90;;;;;;5073877;28;20385;-76
2022/06/26 05:33:24;;;;;;;0.30;0.30;;;19.40;99.90;;;;;;5073471;28;20333;-76
2022/06/26 05:35:49;;;;;;;0.23;0.23;;;19.80;99.90;;;;;;5074319;28;20036;-75
2022/06/26 05:38:15;;;;;;;0.20;0.20;;;20.10;99.90;;;;;;5073858;28;20080;-76
2022/06/26 05:40:40;;;;;;;0.30;0.30;;;20.20;99.90;;;;;;5073742;28;20409;-77
2022/06/26 05:43:06;;;;;;;0.30;0.30;;;20.10;99.90;;;;;;5074081;28;20401;-75
2022/06/26 05:45:32;;;;;;;0.30;0.30;;;19.90;99.90;;;;;;5073696;28;20133;-76
2022/06/26 05:47:58;;;;;;;0.20;0.20;;;19.70;99.90;;;;;;5073636;28;20505;-76
2022/06/26 05:50:23;;;;;;;0.20;0.20;;;19.70;99.90;;;;;;5073739;28;20177;-78
2022/06/26 05:52:49;;;;;;;0.20;0.20;;;19.60;99.90;;;;;;5073622;28;20507;-78
2022/06/26 05:55:15;;;;;;;0.30;0.30;;;19.60;99.90;;;;;;5073897;28;20056;-76
2022/06/26 05:57:41;;;;;;;0.30;0.30;;;19.90;99.90;;;;;;5073560;28;20055;-77
2022/06/26 06:00:08;;;;;;;0.30;0.30;;;20.10;99.90;;;;;;5073586;28;20443;-76
2022/06/26 06:02:33;;;;;;;;;;;20.30;99.90;;;;;;5073807;28;20048;-77
2022/06/26 06:04:59;;;;;;;0.20;0.20;;;20.60;99.90;;;;;;5073520;28;19924;-77
2022/06/26 06:07:25;;;;;;;0.30;0.30;;;20.80;99.90;;;;;;5074333;28;20115;-86
2022/06/26 06:09:51;;;;;;;0.53;0.53;;;20.90;99.90;;;;;;5056442;28;20534;-89
2022/06/26 06:12:17;;;;;;;0.30;0.30;;;21.00;99.90;;;;;;5075074;28;20045;-86
2022/06/26 06:14:44;;;;;;;0.30;0.30;;;21.10;99.90;;;;;;5040199;28;20101;-85
2022/06/26 06:19:55;;;;;;;0.25;0.25;;;21.20;99.90;;;;;;5058007;28;20044;-91
2022/06/26 06:22:44;;;;;;;0.35;0.35;;;21.30;99.90;;;;;;5041411;28;20048;-92
2022/06/26 06:25:16;;;;;;;0.32;0.32;;;21.30;99.90;;;;;;5040300;28;20440;-88
2022/06/26 06:27:45;;;;;;;0.40;0.40;;;21.30;99.90;;;;;;5040793;28;20071;-90
2022/06/26 06:30:13;;;;;;;0.20;0.20;;;21.40;99.90;;;;;;5056654;28;20048;-81
2022/06/26 06:32:40;;;;;;;0.20;0.20;;;21.40;99.90;;;;;;5039194;28;20044;-81
2022/06/26 06:35:07;;;;;;;0.57;0.57;;;21.20;99.90;;;;;;5056017;28;20044;-81
2022/06/26 06:37:33;;;;;;;;;;;21.30;99.90;;;;;;5056138;28;20040;-84
2022/06/26 06:39:58;;;;;;;0.40;0.40;;;21.20;99.90;;;;;;5055787;28;19970;-82
2022/06/26 06:42:24;;;;;;;0.40;0.40;;;21.20;99.90;;;;;;5073783;28;20492;-86
2022/06/26 06:44:50;;;;;;;0.30;0.30;;;21.10;99.90;;;;;;5039538;28;20048;-84
2022/06/26 06:47:16;;;;;;;0.93;0.60;;;20.90;99.90;;;;;;5055942;28;20047;-79
2022/06/26 06:49:42;;;;;;;0.30;0.30;;;20.80;99.90;;;;;;5073747;28;20052;-85
2022/06/26 06:52:08;;;;;;;0.30;0.30;;;20.70;99.90;;;;;;5039751;28;20045;-85
2022/06/26 06:54:34;;;;;;;0.20;0.20;;;20.70;99.90;;;;;;5043033;28;20045;-81
2022/06/26 06:56:59;;;;;;;0.30;0.30;;;20.70;99.90;;;;;;5043181;28;20138;-84
2022/06/26 06:59:25;;;;;;;0.27;0.27;;;20.80;99.90;;;;;;5058916;28;20041;-89
2022/06/26 07:01:51;;;;;;;0.40;0.40;;;21.00;99.90;;;;;;5043647;28;20048;-88
2022/06/26 07:04:18;;;;;;;0.40;0.40;;;21.30;99.90;;;;;;5077131;28;20503;-89
2022/06/26 07:06:43;;;;;;;;;;;21.60;99.90;;;;;;5042966;28;20056;-88
2022/06/26 07:09:10;;;;;;;0.50;0.40;;;21.70;99.90;;;;;;5042599;28;19920;-89
2022/06/26 07:11:35;;;;;;;0.40;0.40;;;21.50;99.90;;;;;;5042151;28;20397;-86
2022/06/26 07:14:01;;;;;;;0.33;0.33;;;21.40;99.90;;;;;;5042569;28;20048;-87
2022/06/26 07:16:27;;;;;;;0.40;0.40;;;21.40;99.90;;;;;;5042494;28;20397;-88
2022/06/26 07:18:53;;;;;;;0.20;0.20;;;21.10;99.90;;;;;;5058861;28;20040;-85
2022/06/26 07:21:18;;;;;;;0.30;0.30;;;21.00;99.90;;;;;;5042296;28;20102;-85
2022/06/26 07:23:44;;;;;;;0.43;0.43;;;20.90;99.90;;;;;;5042418;28;20093;-86
2022/06/26 07:26:10;;;;;;;0.30;0.30;;;20.90;99.90;;;;;;5041674;28;20045;-86
2022/06/26 07:28:36;;;;;;;0.75;0.63;;;21.10;99.90;;;;;;5076716;28;20055;-86
2022/06/26 07:31:01;;;;;;;0.40;0.40;;;21.20;99.90;;;;;;5058994;28;20044;-85
2022/06/26 07:36:12;;;;;;;0.88;0.88;;;21.20;99.90;;;;;;5058790;28;20048;-76
2022/06/26 07:38:37;;;;;;;0.40;0.40;;;21.20;99.90;;;;;;5074743;28;20045;-77
2022/06/26 07:41:03;;;;;;;0.40;0.40;;;21.40;99.90;;;;;;5075392;28;20055;-78
2022/06/26 07:43:29;;;;;;;0.33;0.33;;;21.60;99.90;;;;;;5075917;28;20040;-77
2022/06/26 07:45:56;;;;;;;0.60;0.60;;;21.90;99.90;;;;;;5075922;28;20086;-77
2022/06/26 07:48:21;;;;;;;0.30;0.30;;;22.20;99.90;;;;;;5075962;28;20049;-77
2022/06/26 07:50:47;;;;;;;0.50;0.47;;;22.50;99.90;;;;;;5075720;28;20071;-77
2022/06/26 07:53:13;;;;;;;1.35;0.88;;;22.70;99.90;;;;;;5075584;28;20048;-77
2022/06/26 07:55:39;;;;;;;0.77;0.77;;;22.50;99.90;;;;;;5076214;28;20449;-76
2022/06/26 07:58:05;;;;;;;0.23;0.23;;;22.30;99.90;;;;;;5075585;28;20128;-77
2022/06/26 08:00:30;;;;;;;0.57;0.57;;;22.50;99.90;;;;;;5075709;28;20041;-77
2022/06/26 08:03:06;;;;;;;0.30;0.30;;;22.20;99.90;;;;;;5075413;28;20048;-76
2022/06/26 08:05:31;;;;;;;1.20;0.77;;;22.00;99.90;;;;;;5074278;28;20060;-76
2022/06/26 08:07:57;;;;;;;0.50;0.50;;;21.60;99.90;;;;;;5075153;28;20047;-77
2022/06/26 08:10:23;;;;;;;0.30;0.30;;;21.70;99.90;;;;;;5075774;28;20109;-77
2022/06/26 08:12:48;;;;;;;0.20;0.20;;;21.60;99.90;;;;;;5075195;28;20036;-76
2022/06/26 08:15:14;;;;;;;1.17;0.97;;;21.70;99.90;;;;;;5057569;28;20048;-76
2022/06/26 08:17:40;;;;;;;0.40;0.40;;;21.90;99.90;;;;;;5074925;28;20044;-77
2022/06/26 08:20:09;;;;;;;0.30;0.30;;;22.20;99.90;;;;;;5074938;28;20041;-77
2022/06/26 08:22:34;;;;;;;0.20;0.20;;;22.30;99.90;;;;;;5074847;28;20396;-77
2022/06/26 08:25:00;;;;;;;3.00;0.57;;;22.30;99.90;;;;;;5074836;28;20044;-77
2022/06/26 08:27:26;;;;;;;0.53;0.53;;;22.50;99.90;;;;;;5074969;28;20045;-77
2022/06/26 08:29:51;;;;;;;0.30;0.30;;;22.60;99.90;;;;;;5074495;28;20052;-78
2022/06/26 08:32:17;;;;;;;0.30;0.30;;;22.90;99.90;;;;;;5075080;28;20048;-78
2022/06/26 08:34:42;;;;;;;0.30;0.30;;;23.10;99.90;;;;;;5074763;28;20048;-77
2022/06/26 08:37:08;;;;;;;0.20;0.20;;;23.20;99.90;;;;;;5074628;28;20499;-77
2022/06/26 08:39:35;;;;;;;0.20;0.20;;;23.30;99.90;;;;;;5075224;28;20044;-77
2022/06/26 08:42:03;;;;;;;0.30;0.30;;;23.30;99.90;;;;;;5074651;28;20051;-77
2022/06/26 08:44:29;;;;;;;0.30;0.30;;;23.30;99.90;;;;;;5074651;28;20396;-77
2022/06/26 08:46:55;;;;;;;0.30;0.30;;;23.30;99.90;;;;;;5074519;28;20066;-77
2022/06/26 08:49:23;;;;;;;3.63;3.30;;;23.50;99.90;;;;;;5074195;28;20090;-77
2022/06/26 08:51:50;;;;;;;0.40;0.40;;;23.30;99.90;;;;;;5074079;28;20461;-77
2022/06/26 08:54:17;;;;;;;0.50;0.50;;;23.20;99.90;;;;;;5074386;28;20048;-76
2022/06/26 08:56:44;;;;;;;;;;;23.20;99.90;;;;;;5075103;28;20044;-76
2022/06/26 08:59:15;;;;;;;0.98;0.95;;;23.30;99.90;;;;;;5074253;28;19920;-77
2022/06/26 09:01:41;;;;;;;0.30;0.30;;;23.20;99.90;;;;;;5074207;28;20036;-76
2022/06/26 09:04:08;;;;;;;1.02;0.47;;;23.50;99.90;;;;;;5074181;28;20062;-76
2022/06/26 09:06:34;;;;;;;;;;;23.60;99.90;;;;;;5074546;28;20052;-76
2022/06/26 09:09:00;;;;;;;0.40;0.40;;;23.80;99.90;;;;;;5074134;28;19927;-76
2022/06/26 09:11:25;;;;;;;0.32;0.32;;;23.70;99.90;;;;;;5074077;28;20045;-76
2022/06/26 09:13:53;;;;;;;0.30;0.30;;;23.80;99.90;;;;;;5074325;28;20056;-76
2022/06/26 09:16:29;;;;;;;0.20;0.20;;;24.00;99.90;;;;;;5073846;28;20451;-78
2022/06/26 09:18:55;;;;;;;0.50;0.50;;;24.20;99.90;;;;;;5073770;28;20039;-84
2022/06/26 09:21:26;;;;;;;0.30;0.30;;;24.50;99.90;;;;;;5073802;28;20036;-76
2022/06/26 09:23:55;;;;;;;0.20;0.20;;;24.60;99.90;;;;;;5073921;28;20167;-76
2022/06/26 09:26:21;;;;;;;0.40;0.40;;;24.60;99.90;;;;;;5056241;28;20045;-75
2022/06/26 09:28:46;;;;;;;0.40;0.40;;;24.70;99.90;;;;;;5073915;28;20510;-81
2022/06/26 09:31:18;;;;;;;0.30;0.30;;;24.70;99.90;;;;;;5073933;28;20045;-78
2022/06/26 09:33:44;;;;;;;1.08;1.08;;;24.70;99.90;;;;;;5081232;28;20206;-76
2022/06/26 09:36:18;;;;;;;0.30;0.30;;;24.90;99.90;;;;;;5076559;28;20137;-79
2022/06/26 09:38:51;;;;;;;0.35;0.35;;;24.90;99.90;;;;;;5073661;28;20032;-77
2022/06/26 09:41:27;;;;;;;0.75;0.47;;;25.00;99.90;;;;;;5073565;28;20052;-77
2022/06/26 09:43:55;;;;;;;0.20;0.20;;;25.00;99.90;;;;;;5073854;28;20044;-77
2022/06/26 09:46:30;;;;;;;0.38;0.38;;;24.90;99.90;;;;;;5073526;28;20051;-76
2022/06/26 09:48:58;;;;;;;0.52;0.40;;;25.00;99.90;;;;;;5055921;28;20044;-73
2022/06/26 09:51:25;;;;;;;0.32;0.32;;;25.10;99.90;;;;;;5073148;28;20508;-76
2022/06/26 09:53:51;;;;;;;0.30;0.30;;;25.20;99.90;;;;;;5073408;28;20088;-77
2022/06/26 09:56:17;;;;;;;0.30;0.30;;;25.20;99.90;;;;;;5073485;28;20044;-79
2022/06/26 09:58:43;;;;;;;0.30;0.30;;;25.10;99.90;;;;;;5073301;28;20091;-77
2022/06/26 10:06:40;;;;;;;0.90;0.40;;;24.60;99.90;;;;;;5073516;28;20061;-77
2022/06/26 10:09:07;;;;;;;0.20;0.20;;;24.60;99.90;;;;;;5073373;28;20067;-78
2022/06/26 10:11:35;;;;;;;0.20;0.20;;;24.60;99.90;;;;;;5073227;28;20045;-77
2022/06/26 10:14:06;;;;;;;0.30;0.30;;;24.60;99.90;;;;;;5078180;28;20455;-78
2022/06/26 10:16:42;;;;;;;0.20;0.20;;;24.50;99.90;;;;;;5073515;28;20044;-80
2022/06/26 10:19:45;;;;;;;0.20;0.20;;;24.60;99.90;;;;;;5073216;28;20044;-78
2022/06/26 10:22:12;;;;;;;0.35;0.35;;;24.50;99.90;;;;;;5073668;28;20084;-77
2022/06/26 10:24:52;;;;;;;0.20;0.20;;;24.50;99.90;;;;;;5073245;28;20037;-78
2022/06/26 10:27:27;;;;;;;0.30;0.30;;;24.50;99.90;;;;;;5073734;28;20087;-77
2022/06/26 10:30:13;;;;;;;0.20;0.20;;;24.50;99.90;;;;;;5077223;28;20432;-78
2022/06/26 10:32:39;;;;;;;0.80;0.40;;;24.60;99.90;;;;;;5077444;28;20044;-80
2022/06/26 10:35:05;;;;;;;0.30;0.30;;;24.60;99.90;;;;;;5059277;28;20110;-78
2022/06/26 10:37:46;;;;;;;0.20;0.20;;;24.70;99.90;;;;;;5059454;28;20236;-82
2022/06/26 10:43:08;;;;;;;0.20;0.20;;;24.60;99.90;;;;;;5076901;28;20056;-81
2022/06/26 10:45:38;;;;;;;0.20;0.20;;;24.60;99.90;;;;;;5059408;28;20045;-80
2022/06/26 10:48:10;;;;;;;0.28;0.28;;;24.60;99.90;;;;;;5076660;28;20047;-78
2022/06/26 10:50:39;;;;;;;0.20;0.20;;;24.80;99.90;;;;;;5076702;28;20048;-79
2022/06/26 10:53:29;;;;;;;0.20;0.20;;;24.90;99.90;;;;;;5076325;28;20480;-80
2022/06/26 10:55:56;;;;;;;0.63;0.63;;;24.80;99.90;;;;;;5076622;28;20556;-76
2022/06/26 10:58:35;;;;;;;0.20;0.20;;;24.70;99.90;;;;;;5076576;28;20083;-78
2022/06/26 11:01:04;;;;;;;0.20;0.20;;;24.70;99.90;;;;;;5076459;28;20539;-78
2022/06/26 11:03:31;;;;;;;0.30;0.30;;;24.70;99.90;;;;;;5076309;28;20051;-80
2022/06/26 11:06:00;;;;;;;0.40;0.40;;;24.80;99.90;;;;;;5076868;28;20378;-77
2022/06/26 11:08:30;;;;;;;0.20;0.20;;;24.90;99.90;;;;;;5076416;28;20153;-80
2022/06/26 11:11:07;;;;;;;1.00;1.00;;;25.10;99.90;;;;;;5076383;28;20051;-76
2022/06/26 11:13:35;;;;;;;0.40;0.40;;;25.10;99.90;;;;;;5076278;28;20044;-77
2022/06/26 11:16:02;;;;;;;0.30;0.30;;;25.10;99.90;;;;;;5058430;28;20055;-77
2022/06/26 11:18:35;;;;;;;0.20;0.20;;;25.00;99.90;;;;;;5076702;28;20041;-75
2022/06/26 11:21:02;;;;;;;0.30;0.30;;;24.90;99.90;;;;;;5089881;28;20070;-77
2022/06/26 11:23:35;;;;;;;0.20;0.20;;;24.90;99.90;;;;;;5096384;28;20048;-76
2022/06/26 11:26:06;;;;;;;0.57;0.57;;;25.00;99.90;;;;;;5096448;28;20051;-75
2022/06/26 11:28:41;;;;;;;0.40;0.40;;;25.10;99.90;;;;;;5096445;28;20048;-80
2022/06/26 11:31:13;;;;;;;0.20;0.20;;;25.30;99.90;;;;;;5096925;28;20040;-75
2022/06/26 11:33:42;;;;;;;0.20;0.20;;;25.50;99.90;;;;;;5096237;28;20048;-76
2022/06/26 11:36:10;;;;;;;0.30;0.30;;;25.60;99.90;;;;;;5096273;28;20044;-78
2022/06/26 11:38:36;;;;;;;0.30;0.30;;;25.70;98.80;;;;;;5095833;28;20079;-77
2022/06/26 11:41:07;;;;;;;0.20;0.20;;;25.90;98.60;;;;;;5078059;28;20123;-75
2022/06/26 11:43:34;;;;;;;0.30;0.30;;;25.80;98.00;;;;;;5095997;28;20040;-79
2022/06/26 11:46:02;;;;;;;0.52;0.52;;;25.90;99.10;;;;;;5096019;28;20040;-82
2022/06/26 11:48:29;;;;;;;0.20;0.20;;;26.00;97.40;;;;;;5096276;28;20075;-81
2022/06/26 11:50:57;;;;;;;0.25;0.25;;;25.90;95.80;;;;;;5095878;28;20044;-79
2022/06/26 11:53:25;;;;;;;0.40;0.40;;;25.80;96.90;;;;;;5095851;28;20055;-84
2022/06/26 11:55:54;;;;;;;0.40;0.40;;;25.60;96.90;;;;;;5077250;28;20047;-83
2022/06/26 11:58:28;;;;;;;0.30;0.30;;;25.50;97.50;;;;;;5077279;28;20082;-75
2022/06/26 12:01:11;;;;;;;0.20;0.20;;;25.30;97.90;;;;;;5094982;28;20039;-77
2022/06/26 12:03:49;;;;;;;0.20;0.20;;;25.20;97.50;;;;;;5095640;28;20036;-76
2022/06/26 12:06:36;;;;;;;0.20;0.20;;;25.10;97.00;;;;;;5095611;28;20059;-75
2022/06/26 12:09:17;;;;;;;0.32;0.32;;;25.30;99.40;;;;;;5096094;28;20047;-76
2022/06/26 12:11:44;;;;;;;0.20;0.20;;;25.40;98.70;;;;;;5095626;28;20101;-78
2022/06/26 12:14:11;;;;;;;;;;;25.50;97.10;;;;;;5096113;28;20048;-77
2022/06/26 12:16:53;;;;;;;0.35;0.35;;;25.70;96.80;;;;;;5095480;28;19972;-75
2022/06/26 12:19:20;;;;;;;0.20;0.20;;;25.50;96.10;;;;;;5095485;28;20044;-77
2022/06/26 12:21:47;;;;;;;0.20;0.20;;;25.60;96.40;;;;;;5095392;28;20039;-77
2022/06/26 12:24:14;;;;;;;0.30;0.30;;;25.50;97.20;;;;;;5095184;28;20149;-77
2022/06/26 12:26:41;;;;;;;0.30;0.30;;;25.30;98.00;;;;;;5095546;28;20400;-78
2022/06/26 12:29:11;;;;;;;0.45;0.45;;;25.40;97.90;;;;;;5095392;28;20066;-76
2022/06/26 12:31:38;;;;;;;0.20;0.20;;;25.40;99.00;;;;;;5095045;28;20392;-78
2022/06/26 12:34:04;;;;;;;0.20;0.20;;;25.30;97.10;;;;;;5095303;28;20479;-76
2022/06/26 12:36:31;;;;;;;0.40;0.40;;;25.10;95.90;;;;;;5095097;28;20040;-73
2022/06/26 12:38:57;;;;;;;0.20;0.20;;;25.00;96.30;;;;;;5095203;28;20044;-76
2022/06/26 12:41:23;;;;;;;0.30;0.30;;;24.90;97.30;;;;;;5095099;28;20361;-75
2022/06/26 12:43:54;;;;;;;0.22;0.22;;;24.80;98.70;;;;;;5094606;28;20078;-79
2022/06/26 12:46:20;;;;;;;0.25;0.25;;;24.90;99.20;;;;;;5094713;28;20076;-79
2022/06/26 12:48:47;;;;;;;0.20;0.20;;;24.90;98.80;;;;;;5095044;28;20377;-78
2022/06/26 12:51:14;;;;;;;0.20;0.20;;;24.80;99.50;;;;;;5094243;28;20051;-75
2022/06/26 12:53:41;;;;;;;0.28;0.28;;;24.70;98.90;;;;;;5094849;28;20062;-75
2022/06/26 12:56:07;;;;;;;0.50;0.50;;;24.70;99.30;;;;;;5094938;28;20051;-74
2022/06/26 12:58:33;;;;;;;0.40;0.40;;;24.60;99.00;;;;;;5094529;28;20146;-79
2022/06/26 13:00:59;;;;;;;0.30;0.30;;;24.60;99.30;;;;;;5094694;28;20123;-76
2022/06/26 13:03:24;;;;;;;0.30;0.30;;;24.50;99.30;;;;;;5095053;28;20544;-76
2022/06/26 13:05:50;;;;;;;0.20;0.20;;;24.60;99.90;;;;;;5094391;28;20054;-78
2022/06/26 13:08:16;;;;;;;0.20;0.20;;;24.60;99.90;;;;;;5094591;28;20181;-79